Time;durP1;ratioP1;P1;durP2;ratioP2;P2;SDS_P1;SDS_P2;PMS_P1;PMS_P2;Temp;Humidity;BMP_temperature;BMP_pressure;BME280_temperature;BME280_humidity;BME280_pressure;Samples;Min_cycle;Max_cycle;Signal;HPM_P1;HPM_P2
2022/08/23 00:00:14;;;;;;;5.70;2.85;;;;;;;;;;5032203;28;20172;-72
2022/08/23 00:02:39;;;;;;;7.03;2.47;;;;;;;;;;5032770;28;20576;-72
2022/08/23 00:05:05;;;;;;;10.77;2.63;;;;;;;;;;5033381;28;20168;-72
2022/08/23 00:07:30;;;;;;;7.35;2.33;;;;;;;;;;5036118;28;20164;-70
2022/08/23 00:09:56;;;;;;;7.07;2.28;;;;;;;;;;5035665;28;20199;-72
2022/08/23 00:12:22;;;;;;;9.07;2.67;;;;;;;;;;5036618;28;20167;-72
2022/08/23 00:14:48;;;;;;;6.53;2.83;;;;;;;;;;5035852;28;20601;-72
2022/08/23 00:17:14;;;;;;;7.53;2.78;;;;;;;;;;5036817;28;20192;-72
2022/08/23 00:19:40;;;;;;;5.97;2.63;;;;;;;;;;5036772;28;20206;-72
2022/08/23 00:22:05;;;;;;;5.07;2.40;;;;;;;;;;5034889;28;20156;-73
2022/08/23 00:24:31;;;;;;;5.43;2.22;;;;;;;;;;5035324;28;20619;-73
2022/08/23 00:27:01;;;;;;;5.72;2.53;;;;;;;;;;5035415;28;20632;-73
2022/08/23 00:29:28;;;;;;;8.82;2.42;;;;;;;;;;5035445;28;20752;-72
2022/08/23 00:31:54;;;;;;;7.88;2.65;;;;;;;;;;5035337;28;20179;-73
2022/08/23 00:34:20;;;;;;;7.28;2.30;;;;;;;;;;5036464;28;20164;-73
2022/08/23 00:36:46;;;;;;;5.95;2.42;;;;;;;;;;5034424;28;20166;-72
2022/08/23 00:39:12;;;;;;;9.45;2.53;;;;;;;;;;5036192;28;20203;-72
2022/08/23 00:41:37;;;;;;;6.68;2.78;;;;;;;;;;5035095;28;20192;-73
2022/08/23 00:49:32;;;;;;;7.72;2.50;;;;;;;;;;5034477;28;20282;-73
2022/08/23 00:52:06;;;;;;;5.78;2.50;;;;;;;;;;5036100;28;20177;-72
2022/08/23 00:54:32;;;;;;;6.70;2.40;;;;;;;;;;5036045;28;20634;-73
2022/08/23 00:56:57;;;;;;;6.28;2.47;;;;;;;;;;5034321;28;20168;-74
2022/08/23 00:59:23;;;;;;;6.28;2.38;;;;;;;;;;5034905;28;20237;-73
2022/08/23 01:01:48;;;;;;;9.40;2.80;;;;;;;;;;5035874;28;20653;-74
2022/08/23 01:04:15;;;;;;;8.73;2.78;;;;;;;;;;5035152;28;20164;-75
2022/08/23 01:06:43;;;;;;;6.50;2.63;;;;;;;;;;5034601;28;20171;-75
2022/08/23 01:09:11;;;;;;;7.18;2.55;;;;;;;;;;5035662;28;20207;-75
2022/08/23 01:11:40;;;;;;;7.30;2.47;;;;;;;;;;5033979;28;20169;-74
2022/08/23 01:14:11;;;;;;;5.88;2.70;;;;;;;;;;5034445;28;20168;-74
2022/08/23 01:16:39;;;;;;;7.07;2.85;;;;;;;;;;5034239;28;20526;-74
2022/08/23 01:19:06;;;;;;;7.18;2.60;;;;;;;;;;5033719;28;20168;-75
2022/08/23 01:21:32;;;;;;;6.45;2.70;;;;;;;;;;5034298;28;20168;-74
2022/08/23 01:23:59;;;;;;;9.98;3.28;;;;;;;;;;5034620;28;20206;-75
2022/08/23 01:26:24;;;;;;;7.43;2.70;;;;;;;;;;5035009;28;20165;-75
2022/08/23 01:28:50;;;;;;;5.78;2.80;;;;;;;;;;5034265;28;20171;-75
2022/08/23 01:31:16;;;;;;;6.38;2.78;;;;;;;;;;5035183;28;20194;-75
2022/08/23 01:33:42;;;;;;;6.78;2.72;;;;;;;;;;5034650;28;20636;-75
2022/08/23 01:36:08;;;;;;;8.23;3.03;;;;;;;;;;5033815;28;20176;-75
2022/08/23 01:38:33;;;;;;;8.95;3.17;;;;;;;;;;5033380;28;20634;-74
2022/08/23 01:40:58;;;;;;;6.97;2.70;;;;;;;;;;5034007;28;20168;-75
2022/08/23 01:43:24;;;;;;;6.70;2.40;;;;;;;;;;5050426;28;20171;-75
2022/08/23 01:45:50;;;;;;;6.65;2.95;;;;;;;;;;5032939;28;20168;-75
2022/08/23 01:48:16;;;;;;;6.68;3.17;;;;;;;;;;5035057;28;20172;-75
2022/08/23 01:50:42;;;;;;;6.80;3.05;;;;;;;;;;5034762;28;20533;-75
2022/08/23 01:53:07;;;;;;;7.95;2.80;;;;;;;;;;5034216;28;20195;-75
2022/08/23 01:55:32;;;;;;;8.55;2.78;;;;;;;;;;5033862;28;20215;-75
2022/08/23 01:57:59;;;;;;;6.43;2.97;;;;;;;;;;5033877;28;20689;-75
2022/08/23 02:00:28;;;;;;;7.22;2.78;;;;;;;;;;5032930;28;20168;-75
2022/08/23 02:02:53;;;;;;;6.68;3.22;;;;;;;;;;5034413;28;20671;-75
2022/08/23 02:05:19;;;;;;;6.90;3.33;;;;;;;;;;5034590;28;20262;-75
2022/08/23 02:07:44;;;;;;;6.30;2.78;;;;;;;;;;5033990;28;20156;-75
2022/08/23 02:10:10;;;;;;;7.20;3.42;;;;;;;;;;5034415;28;20215;-75
2022/08/23 02:12:36;;;;;;;7.47;3.05;;;;;;;;;;5034559;28;20567;-75
2022/08/23 02:15:01;;;;;;;8.52;3.53;;;;;;;;;;5033809;28;20198;-75
2022/08/23 02:17:27;;;;;;;8.18;2.92;;;;;;;;;;5034375;28;20239;-75
2022/08/23 02:19:53;;;;;;;8.57;2.90;;;;;;;;;;5034044;28;20512;-75
2022/08/23 02:22:18;;;;;;;7.25;2.83;;;;;;;;;;5033404;28;20160;-75
2022/08/23 02:24:44;;;;;;;6.88;2.83;;;;;;;;;;5033336;28;20267;-75
2022/08/23 02:27:09;;;;;;;6.82;3.08;;;;;;;;;;5033208;28;20168;-75
2022/08/23 02:29:35;;;;;;;7.22;3.03;;;;;;;;;;5032930;28;20235;-75
2022/08/23 02:32:00;;;;;;;7.20;3.00;;;;;;;;;;5034159;28;20165;-75
2022/08/23 02:34:26;;;;;;;5.90;2.85;;;;;;;;;;5034079;28;20168;-75
2022/08/23 02:36:51;;;;;;;7.05;3.30;;;;;;;;;;5032281;28;20235;-75
2022/08/23 02:39:17;;;;;;;7.93;3.05;;;;;;;;;;5034408;28;20632;-75
2022/08/23 02:41:42;;;;;;;7.30;3.20;;;;;;;;;;5032699;28;20687;-75
2022/08/23 02:44:07;;;;;;;6.90;3.22;;;;;;;;;;5032357;28;20157;-76
2022/08/23 02:46:33;;;;;;;6.97;3.53;;;;;;;;;;5033808;28;20706;-75
2022/08/23 02:48:58;;;;;;;10.70;3.78;;;;;;;;;;5033013;28;20203;-75
2022/08/23 02:51:24;;;;;;;7.90;3.20;;;;;;;;;;5033813;28;20160;-76
2022/08/23 02:53:49;;;;;;;6.65;3.60;;;;;;;;;;5033836;28;20230;-75
2022/08/23 02:56:14;;;;;;;7.43;3.50;;;;;;;;;;5033013;28;20210;-75
2022/08/23 02:58:40;;;;;;;7.05;3.03;;;;;;;;;;5033810;28;20176;-75
2022/08/23 03:01:05;;;;;;;6.45;3.10;;;;;;;;;;5033579;28;20187;-75
2022/08/23 03:03:30;;;;;;;7.35;3.03;;;;;;;;;;5032559;28;20527;-75
2022/08/23 03:05:56;;;;;;;6.90;3.42;;;;;;;;;;5033662;28;20191;-75
2022/08/23 03:08:21;;;;;;;7.47;3.20;;;;;;;;;;5032361;28;20172;-75
2022/08/23 03:10:47;;;;;;;6.95;3.17;;;;;;;;;;5031821;28;20258;-75
2022/08/23 03:13:12;;;;;;;5.85;3.15;;;;;;;;;;5032190;28;20175;-75
2022/08/23 03:15:38;;;;;;;9.10;3.60;;;;;;;;;;5032293;28;20259;-75
2022/08/23 03:18:03;;;;;;;5.18;3.20;;;;;;;;;;5031457;28;20164;-76
2022/08/23 03:20:29;;;;;;;8.15;3.42;;;;;;;;;;5033658;28;20171;-75
2022/08/23 03:22:54;;;;;;;6.45;3.38;;;;;;;;;;5033404;28;20199;-75
2022/08/23 03:25:20;;;;;;;6.40;3.50;;;;;;;;;;5032843;28;20306;-75
2022/08/23 03:27:46;;;;;;;8.93;3.47;;;;;;;;;;5032079;28;20176;-75
2022/08/23 03:30:11;;;;;;;11.35;3.80;;;;;;;;;;5033497;28;20196;-75
2022/08/23 03:32:36;;;;;;;5.70;3.30;;;;;;;;;;5031229;28;20167;-75
2022/08/23 03:35:02;;;;;;;7.95;3.58;;;;;;;;;;5031968;28;20178;-75
2022/08/23 03:37:27;;;;;;;7.85;3.42;;;;;;;;;;5033358;28;20250;-75
2022/08/23 03:39:53;;;;;;;7.60;4.03;;;;;;;;;;5031502;28;20176;-75
2022/08/23 03:42:18;;;;;;;7.72;3.75;;;;;;;;;;5037404;28;20168;-75
2022/08/23 03:44:43;;;;;;;5.45;3.17;;;;;;;;;;5037367;28;20259;-75
2022/08/23 03:47:09;;;;;;;8.40;3.50;;;;;;;;;;5036306;28;20570;-75
2022/08/23 03:49:34;;;;;;;6.82;3.17;;;;;;;;;;5037265;28;20282;-75
2022/08/23 03:51:59;;;;;;;7.20;3.20;;;;;;;;;;5035872;28;20167;-75
2022/08/23 03:54:25;;;;;;;8.20;3.67;;;;;;;;;;5035055;28;20175;-75
2022/08/23 03:56:53;;;;;;;7.10;3.35;;;;;;;;;;5036112;28;20171;-75
2022/08/23 03:59:19;;;;;;;6.90;3.70;;;;;;;;;;5035246;28;20179;-75
2022/08/23 04:01:44;;;;;;;7.13;3.35;;;;;;;;;;5036820;28;20176;-75
2022/08/23 04:04:09;;;;;;;6.78;3.30;;;;;;;;;;5035855;28;20160;-75
2022/08/23 04:06:35;;;;;;;7.35;3.65;;;;;;;;;;5036176;28;20520;-75
2022/08/23 04:09:00;;;;;;;8.60;3.35;;;;;;;;;;5036938;28;20222;-75
2022/08/23 04:11:26;;;;;;;7.25;3.55;;;;;;;;;;5036995;28;20164;-75
2022/08/23 04:13:51;;;;;;;10.25;4.43;;;;;;;;;;5036050;28;20172;-75
2022/08/23 04:16:17;;;;;;;8.13;3.58;;;;;;;;;;5035791;28;20170;-75
2022/08/23 04:18:43;;;;;;;9.38;3.80;;;;;;;;;;5036663;28;20164;-76
2022/08/23 04:21:09;;;;;;;7.63;3.83;;;;;;;;;;5035838;28;20686;-70
2022/08/23 04:23:35;;;;;;;7.45;4.07;;;;;;;;;;5035585;28;20248;-74
2022/08/23 04:26:00;;;;;;;8.73;4.25;;;;;;;;;;5034712;28;20504;-71
2022/08/23 04:28:25;;;;;;;8.07;3.88;;;;;;;;;;5035712;28;20172;-69
2022/08/23 04:30:51;;;;;;;8.52;4.80;;;;;;;;;;5036224;28;20204;-73
2022/08/23 04:33:17;;;;;;;10.50;4.60;;;;;;;;;;5036124;28;20409;-70
2022/08/23 04:35:42;;;;;;;7.78;3.90;;;;;;;;;;5034695;28;20187;-71
2022/08/23 04:38:07;;;;;;;8.45;3.70;;;;;;;;;;5032586;28;20179;-71
2022/08/23 04:43:19;;;;;;;6.80;3.90;;;;;;;;;;5032980;28;20219;-69
2022/08/23 04:45:44;;;;;;;10.50;4.43;;;;;;;;;;5050845;28;20196;-70
2022/08/23 04:48:09;;;;;;;8.32;4.32;;;;;;;;;;5033756;28;20176;-69
2022/08/23 04:50:35;;;;;;;7.97;4.50;;;;;;;;;;5034316;28;20200;-70
2022/08/23 04:53:00;;;;;;;9.70;4.13;;;;;;;;;;5035236;28;20214;-70
2022/08/23 04:55:26;;;;;;;28.33;5.47;;;;;;;;;;5034146;28;20169;-72
2022/08/23 04:57:51;;;;;;;24.33;4.80;;;;;;;;;;5034427;28;20620;-68
2022/08/23 05:00:16;;;;;;;12.93;4.15;;;;;;;;;;5035314;28;20214;-67
2022/08/23 05:02:42;;;;;;;13.13;4.88;;;;;;;;;;5034720;28;20972;-67
2022/08/23 05:05:08;;;;;;;7.75;4.30;;;;;;;;;;5035230;28;20251;-68
2022/08/23 05:07:33;;;;;;;8.48;4.05;;;;;;;;;;5033299;28;20160;-68
2022/08/23 05:09:59;;;;;;;6.78;4.25;;;;;;;;;;5033015;28;20207;-69
2022/08/23 05:12:24;;;;;;;10.93;4.57;;;;;;;;;;5035748;28;20164;-68
2022/08/23 05:14:49;;;;;;;9.20;4.40;;;;;;;;;;5033857;28;20667;-68
2022/08/23 05:17:15;;;;;;;9.32;4.78;;;;;;;;;;5034614;28;20168;-68
2022/08/23 05:19:40;;;;;;;9.43;4.22;;;;;;;;;;5035155;28;20262;-68
2022/08/23 05:22:05;;;;;;;8.82;4.10;;;;;;;;;;5034877;28;20176;-67
2022/08/23 05:24:31;;;;;;;6.55;3.83;;;;;;;;;;5033150;28;20164;-67
2022/08/23 05:26:56;;;;;;;5.38;4.05;;;;;;;;;;5035024;28;20575;-68
2022/08/23 05:29:21;;;;;;;7.22;3.90;;;;;;;;;;5034728;28;20210;-67
2022/08/23 05:31:47;;;;;;;9.25;3.80;;;;;;;;;;5034074;28;20174;-66
2022/08/23 05:34:13;;;;;;;6.82;4.20;;;;;;;;;;5034848;28;20172;-69
2022/08/23 05:36:38;;;;;;;7.05;4.03;;;;;;;;;;5032833;28;20410;-71
2022/08/23 05:39:04;;;;;;;7.90;4.10;;;;;;;;;;5032000;28;20164;-71
2022/08/23 05:41:29;;;;;;;7.05;3.80;;;;;;;;;;5034468;28;20176;-69
2022/08/23 05:43:55;;;;;;;7.95;3.50;;;;;;;;;;5034662;28;20171;-70
2022/08/23 05:46:20;;;;;;;6.05;3.70;;;;;;;;;;5033695;28;20224;-67
2022/08/23 05:48:46;;;;;;;9.87;4.43;;;;;;;;;;5032681;28;20405;-67
2022/08/23 05:51:22;;;;;;;10.48;4.40;;;;;;;;;;5034950;28;20230;-68
2022/08/23 05:53:47;;;;;;;8.43;3.75;;;;;;;;;;5034052;28;20172;-65
2022/08/23 05:56:19;;;;;;;16.25;4.22;;;;;;;;;;5034819;28;20682;-68
2022/08/23 05:58:45;;;;;;;6.45;3.67;;;;;;;;;;5034360;28;20168;-66
2022/08/23 06:01:10;;;;;;;5.65;3.50;;;;;;;;;;5034846;28;20164;-67
2022/08/23 06:03:36;;;;;;;10.52;3.88;;;;;;;;;;5033703;28;20168;-70
2022/08/23 06:06:01;;;;;;;9.75;3.75;;;;;;;;;;5032285;28;20166;-70
2022/08/23 06:08:27;;;;;;;8.13;3.65;;;;;;;;;;5031939;28;20198;-69
2022/08/23 06:10:59;;;;;;;9.48;4.20;;;;;;;;;;5033016;28;20654;-67
2022/08/23 06:13:24;;;;;;;12.85;6.63;;;;;;;;;;5033571;28;20187;-67
2022/08/23 06:15:49;;;;;;;16.48;8.10;;;;;;;;;;5034358;28;20541;-65
2022/08/23 06:18:15;;;;;;;15.93;6.97;;;;;;;;;;5034579;28;20195;-65
2022/08/23 06:20:40;;;;;;;12.50;6.65;;;;;;;;;;5033638;28;20184;-65
2022/08/23 06:23:06;;;;;;;17.42;7.00;;;;;;;;;;5034040;28;20165;-64
2022/08/23 06:25:34;;;;;;;15.82;7.82;;;;;;;;;;5034271;28;20179;-65
2022/08/23 06:28:00;;;;;;;9.45;5.40;;;;;;;;;;5032232;28;20179;-64
2022/08/23 06:30:25;;;;;;;13.38;6.90;;;;;;;;;;5034172;28;20663;-65
2022/08/23 06:32:50;;;;;;;20.73;9.43;;;;;;;;;;5034163;28;20172;-65
2022/08/23 06:35:16;;;;;;;19.42;8.77;;;;;;;;;;5033028;28;20628;-64
2022/08/23 06:37:41;;;;;;;18.92;8.95;;;;;;;;;;5031942;28;20180;-65
2022/08/23 06:40:07;;;;;;;16.70;8.43;;;;;;;;;;5032782;28;20658;-64
2022/08/23 06:42:32;;;;;;;17.42;9.30;;;;;;;;;;5033210;28;20172;-64
2022/08/23 06:44:57;;;;;;;17.15;9.75;;;;;;;;;;5032680;28;20644;-64
2022/08/23 06:47:23;;;;;;;14.55;9.57;;;;;;;;;;5033682;28;20235;-64
2022/08/23 06:49:49;;;;;;;14.88;9.45;;;;;;;;;;5032959;28;20227;-64
2022/08/23 06:52:14;;;;;;;12.60;9.57;;;;;;;;;;5032650;28;20577;-64
2022/08/23 06:54:40;;;;;;;18.63;9.98;;;;;;;;;;5033998;28;20500;-64
2022/08/23 06:57:05;;;;;;;14.45;9.25;;;;;;;;;;5033035;28;20635;-64
2022/08/23 06:59:31;;;;;;;13.75;9.60;;;;;;;;;;5033896;28;20164;-64
2022/08/23 07:01:57;;;;;;;12.40;9.52;;;;;;;;;;5033619;28;20677;-65
2022/08/23 07:04:23;;;;;;;14.27;9.05;;;;;;;;;;5033200;28;20164;-65
2022/08/23 07:06:48;;;;;;;13.18;9.45;;;;;;;;;;5032357;28;20164;-65
2022/08/23 07:09:14;;;;;;;15.93;9.70;;;;;;;;;;5030421;28;20207;-64
2022/08/23 07:11:40;;;;;;;15.15;9.80;;;;;;;;;;5033470;28;20627;-64
2022/08/23 07:14:06;;;;;;;13.55;9.80;;;;;;;;;;5033379;28;20539;-64
2022/08/23 07:16:34;;;;;;;17.90;9.63;;;;;;;;;;5032916;28;20179;-64
2022/08/23 07:18:59;;;;;;;16.15;9.30;;;;;;;;;;5033354;28;20295;-63
2022/08/23 07:21:24;;;;;;;13.20;9.48;;;;;;;;;;5032717;28;20251;-64
2022/08/23 07:23:50;;;;;;;18.38;10.80;;;;;;;;;;5032040;28;20183;-64
2022/08/23 07:26:15;;;;;;;16.70;9.85;;;;;;;;;;5033576;28;20172;-65
2022/08/23 07:28:41;;;;;;;14.52;9.82;;;;;;;;;;5033275;28;20631;-64
2022/08/23 07:31:07;;;;;;;15.95;10.52;;;;;;;;;;5032554;28;20257;-64
2022/08/23 07:33:33;;;;;;;16.38;9.35;;;;;;;;;;5032940;28;20182;-69
2022/08/23 07:35:58;;;;;;;16.00;10.23;;;;;;;;;;5032571;28;20251;-67
2022/08/23 07:38:23;;;;;;;13.45;9.55;;;;;;;;;;5030173;28;20259;-63
2022/08/23 07:40:49;;;;;;;17.10;9.48;;;;;;;;;;5032352;28;20178;-63
2022/08/23 07:43:14;;;;;;;19.92;10.35;;;;;;;;;;5032684;28;20612;-63
2022/08/23 07:45:41;;;;;;;17.75;9.82;;;;;;;;;;5032326;28;20267;-63
2022/08/23 07:48:06;;;;;;;15.07;8.93;;;;;;;;;;5032893;28;20211;-63
2022/08/23 07:50:32;;;;;;;15.80;9.88;;;;;;;;;;5033049;28;20219;-64
2022/08/23 07:52:57;;;;;;;16.17;10.10;;;;;;;;;;5031917;28;20582;-64
2022/08/23 07:55:22;;;;;;;14.65;9.48;;;;;;;;;;5033076;28;20190;-64
2022/08/23 07:57:48;;;;;;;19.48;11.18;;;;;;;;;;5033276;28;20156;-64
2022/08/23 08:00:14;;;;;;;16.58;9.40;;;;;;;;;;5032131;28;20538;-64
2022/08/23 08:02:39;;;;;;;16.10;11.00;;;;;;;;;;5032971;28;20693;-63
2022/08/23 08:05:05;;;;;;;15.90;10.85;;;;;;;;;;5032746;28;20168;-64
2022/08/23 08:07:30;;;;;;;18.23;10.02;;;;;;;;;;5030091;28;20187;-64
2022/08/23 08:09:55;;;;;;;15.40;10.77;;;;;;;;;;5031185;28;20227;-64
2022/08/23 08:12:22;;;;;;;16.67;11.40;;;;;;;;;;5031065;28;20196;-64
2022/08/23 08:14:47;;;;;;;20.63;11.90;;;;;;;;;;5032806;28;20701;-63
2022/08/23 08:17:12;;;;;;;17.20;11.13;;;;;;;;;;5032954;28;20299;-64
2022/08/23 08:19:38;;;;;;;19.38;10.63;;;;;;;;;;5028107;28;20169;-63
2022/08/23 08:22:04;;;;;;;17.90;10.13;;;;;;;;;;5029843;28;20269;-64
2022/08/23 08:24:29;;;;;;;16.90;11.15;;;;;;;;;;5032577;28;20180;-63
2022/08/23 08:26:54;;;;;;;16.05;9.40;;;;;;;;;;5033774;28;20635;-63
2022/08/23 08:29:19;;;;;;;19.00;11.07;;;;;;;;;;5036461;28;20195;-64
2022/08/23 08:31:46;;;;;;;14.75;10.10;;;;;;;;;;5036271;28;20168;-64
2022/08/23 08:34:12;;;;;;;17.45;9.45;;;;;;;;;;5034807;28;20175;-65
2022/08/23 08:36:37;;;;;;;15.73;8.15;;;;;;;;;;5033547;28;20172;-64
2022/08/23 08:39:03;;;;;;;15.38;8.98;;;;;;;;;;5033661;28;20176;-64
2022/08/23 08:41:39;;;;;;;16.38;9.75;;;;;;;;;;5035412;28;20168;-65
2022/08/23 08:44:07;;;;;;;14.27;9.77;;;;;;;;;;5018815;28;20527;-66
2022/08/23 08:46:38;;;;;;;14.55;9.98;;;;;;;;;;5034915;28;20252;-65
2022/08/23 08:49:03;;;;;;;13.13;8.82;;;;;;;;;;5035090;28;20250;-65
2022/08/23 08:51:40;;;;;;;16.90;10.18;;;;;;;;;;5034822;28;20200;-66
2022/08/23 08:54:06;;;;;;;14.70;10.00;;;;;;;;;;5034806;28;20168;-68
2022/08/23 08:56:32;;;;;;;12.90;9.50;;;;;;;;;;5034024;28;20181;-66
2022/08/23 08:58:59;;;;;;;18.42;9.40;;;;;;;;;;5036054;28;20164;-67
2022/08/23 09:01:25;;;;;;;16.02;8.30;;;;;;;;;;5035854;28;20178;-66
2022/08/23 09:03:50;;;;;;;18.15;9.52;;;;;;;;;;5034701;28;20172;-66
2022/08/23 09:06:21;;;;;;;14.57;9.15;;;;;;;;;;5035538;28;20229;-66
2022/08/23 09:08:52;;;;;;;13.65;8.40;;;;;;;;;;5033711;28;20168;-64
2022/08/23 09:11:25;;;;;;;13.88;8.02;;;;;;;;;;5035284;28;20278;-66
2022/08/23 09:14:02;;;;;;;15.57;8.15;;;;;;;;;;5035487;28;20168;-66
2022/08/23 09:16:37;;;;;;;15.05;7.13;;;;;;;;;;5033276;28;20288;-65
2022/08/23 09:19:02;;;;;;;18.00;7.70;;;;;;;;;;5034003;28;20167;-66
2022/08/23 09:21:29;;;;;;;16.38;8.65;;;;;;;;;;5035127;28;20230;-66
2022/08/23 09:23:54;;;;;;;14.98;8.98;;;;;;;;;;5033380;28;20516;-66
2022/08/23 09:26:21;;;;;;;20.13;8.75;;;;;;;;;;5035219;28;20283;-66
2022/08/23 09:28:47;;;;;;;14.70;7.63;;;;;;;;;;5035256;28;20176;-65
2022/08/23 09:31:12;;;;;;;15.68;7.50;;;;;;;;;;5033133;28;20289;-65
2022/08/23 09:33:39;;;;;;;19.27;7.30;;;;;;;;;;5033721;28;20172;-65
2022/08/23 09:36:06;;;;;;;16.30;7.75;;;;;;;;;;5033067;28;20184;-65
2022/08/23 09:38:31;;;;;;;22.23;7.55;;;;;;;;;;5033044;28;20218;-65
2022/08/23 09:40:57;;;;;;;18.40;7.80;;;;;;;;;;5033796;28;20176;-65
2022/08/23 09:43:24;;;;;;;15.50;7.20;;;;;;;;;;5033184;28;20160;-64
2022/08/23 09:45:50;;;;;;;13.73;6.60;;;;;;;;;;5032627;28;20183;-67
2022/08/23 09:48:31;;;;;;;17.63;6.72;;;;;;;;;;5031624;28;20164;-66
2022/08/23 09:50:59;;;;;;;14.85;6.40;;;;;;;;;;5032606;28;20211;-66
2022/08/23 09:53:26;;;;;;;10.02;5.00;;;;;;;;;;5031715;28;20183;-66
2022/08/23 09:55:53;;;;;;;14.52;5.72;;;;;;;;;;5034451;28;20180;-65
2022/08/23 09:58:22;;;;;;;13.38;5.20;;;;;;;;;;5033503;28;20167;-65
2022/08/23 10:01:06;;;;;;;11.80;5.38;;;;;;;;;;5033938;28;20172;-66
2022/08/23 10:03:32;;;;;;;17.75;4.65;;;;;;;;;;5038343;28;20243;-67
2022/08/23 10:05:58;;;;;;;9.77;4.63;;;;;;;;;;5031650;28;20176;-66
2022/08/23 10:08:27;;;;;;;8.10;4.18;;;;;;;;;;5034454;28;20214;-64
2022/08/23 10:10:52;;;;;;;11.40;4.20;;;;;;;;;;5031549;28;20219;-64
2022/08/23 10:13:19;;;;;;;13.40;4.72;;;;;;;;;;5033766;28;20172;-64
2022/08/23 10:15:56;;;;;;;13.05;4.95;;;;;;;;;;5034333;28;20191;-64
2022/08/23 10:18:37;;;;;;;13.70;5.28;;;;;;;;;;5034398;28;20178;-64
2022/08/23 10:21:15;;;;;;;13.05;4.82;;;;;;;;;;5033405;28;20542;-63
2022/08/23 10:23:50;;;;;;;12.70;3.78;;;;;;;;;;5033720;28;20455;-64
2022/08/23 10:26:18;;;;;;;9.18;2.90;;;;;;;;;;5032415;28;20167;-65
2022/08/23 10:31:33;;;;;;;11.27;3.10;;;;;;;;;;5033240;28;20542;-64
2022/08/23 10:34:05;;;;;;;8.85;3.13;;;;;;;;;;5031742;28;20195;-64
2022/08/23 10:36:45;;;;;;;10.13;3.38;;;;;;;;;;5033109;28;20272;-64
2022/08/23 10:39:22;;;;;;;10.35;3.45;;;;;;;;;;5029568;28;20199;-64
2022/08/23 10:42:02;;;;;;;6.78;2.88;;;;;;;;;;5013367;28;20624;-73
2022/08/23 10:44:38;;;;;;;9.77;2.70;;;;;;;;;;5013058;28;20177;-74
2022/08/23 10:47:06;;;;;;;9.20;2.70;;;;;;;;;;5012401;28;20223;-74
2022/08/23 10:49:33;;;;;;;7.47;2.63;;;;;;;;;;5013460;28;20204;-70
2022/08/23 10:51:58;;;;;;;6.50;2.58;;;;;;;;;;5014141;28;20169;-63
2022/08/23 10:54:34;;;;;;;6.18;2.58;;;;;;;;;;5013316;28;20168;-63
2022/08/23 10:57:00;;;;;;;10.07;3.03;;;;;;;;;;5012836;28;20230;-63
2022/08/23 10:59:25;;;;;;;8.10;2.80;;;;;;;;;;5013902;28;20601;-63
2022/08/23 11:02:09;;;;;;;9.73;3.03;;;;;;;;;;5019005;28;20247;-63
2022/08/23 11:04:43;;;;;;;5.80;2.50;;;;;;;;;;5013535;28;20187;-63
2022/08/23 11:07:28;;;;;;;7.90;2.72;;;;;;;;;;4996247;28;20180;-63
2022/08/23 11:10:09;;;;;;;7.13;2.63;;;;;;;;;;5012907;28;20228;-63
2022/08/23 11:12:48;;;;;;;8.57;2.45;;;;;;;;;;5012554;28;20169;-63
2022/08/23 11:15:18;;;;;;;11.52;3.28;;;;;;;;;;5012833;28;20180;-63
2022/08/23 11:17:49;;;;;;;7.25;2.80;;;;;;;;;;5013872;28;20287;-63
2022/08/23 11:20:34;;;;;;;8.15;3.10;;;;;;;;;;5013925;28;20165;-63
2022/08/23 11:23:00;;;;;;;8.80;2.80;;;;;;;;;;5012634;28;20169;-63
2022/08/23 11:25:25;;;;;;;10.43;3.15;;;;;;;;;;5013605;28;20735;-63
2022/08/23 11:28:10;;;;;;;7.80;2.72;;;;;;;;;;5018641;28;20562;-63
2022/08/23 11:30:37;;;;;;;8.18;3.17;;;;;;;;;;5032398;28;20219;-63
2022/08/23 11:33:14;;;;;;;9.32;3.10;;;;;;;;;;5031598;28;20160;-63
2022/08/23 11:35:44;;;;;;;8.27;2.92;;;;;;;;;;5033314;28;20172;-63
2022/08/23 11:38:10;;;;;;;7.18;2.95;;;;;;;;;;5032486;28;20179;-63
2022/08/23 11:40:38;;;;;;;8.70;3.03;;;;;;;;;;5033503;28;20682;-63
2022/08/23 11:43:09;;;;;;;9.75;2.75;;;;;;;;;;5033226;28;20218;-63
2022/08/23 11:45:34;;;;;;;12.82;3.00;;;;;;;;;;5032223;28;20195;-63
2022/08/23 11:48:18;;;;;;;8.73;2.67;;;;;;;;;;5032677;28;20267;-63
2022/08/23 11:50:50;;;;;;;7.57;2.60;;;;;;;;;;5032523;28;20214;-63
2022/08/23 11:53:15;;;;;;;10.77;2.97;;;;;;;;;;5033252;28;20226;-63
2022/08/23 11:55:52;;;;;;;8.55;2.95;;;;;;;;;;5033246;28;20569;-63
2022/08/23 11:58:22;;;;;;;7.85;2.58;;;;;;;;;;5032417;28;20163;-63
2022/08/23 12:00:52;;;;;;;8.30;2.50;;;;;;;;;;5032874;28;20188;-63
2022/08/23 12:03:25;;;;;;;6.13;2.58;;;;;;;;;;5035431;28;20594;-63
2022/08/23 12:05:50;;;;;;;8.82;2.70;;;;;;;;;;5035289;28;20245;-63
2022/08/23 12:08:20;;;;;;;7.18;2.40;;;;;;;;;;5037000;28;20208;-63
2022/08/23 12:10:46;;;;;;;8.55;2.72;;;;;;;;;;5036859;28;20200;-64
2022/08/23 12:13:18;;;;;;;10.55;2.53;;;;;;;;;;5035990;28;20167;-63
2022/08/23 12:16:02;;;;;;;5.50;2.28;;;;;;;;;;5036704;28;20607;-63
2022/08/23 12:18:27;;;;;;;6.85;2.28;;;;;;;;;;5036465;28;20178;-63
2022/08/23 12:20:56;;;;;;;6.82;2.65;;;;;;;;;;5035126;28;20168;-63
2022/08/23 12:23:21;;;;;;;6.63;2.45;;;;;;;;;;5036592;28;20535;-63
2022/08/23 12:25:56;;;;;;;7.72;2.20;;;;;;;;;;5035973;28;20168;-63
2022/08/23 12:28:28;;;;;;;6.90;2.60;;;;;;;;;;5036630;28;20167;-63
2022/08/23 12:30:56;;;;;;;7.70;2.40;;;;;;;;;;5035210;28;20215;-63
2022/08/23 12:33:21;;;;;;;9.27;2.40;;;;;;;;;;5035565;28;20164;-63
2022/08/23 12:35:52;;;;;;;6.50;2.40;;;;;;;;;;5036565;28;20176;-63
2022/08/23 12:38:17;;;;;;;7.30;2.92;;;;;;;;;;5036409;28;20195;-63
2022/08/23 12:40:45;;;;;;;7.57;2.30;;;;;;;;;;5035595;28;20610;-63
2022/08/23 12:43:15;;;;;;;6.07;2.28;;;;;;;;;;5035096;28;20178;-63
2022/08/23 12:45:43;;;;;;;6.72;2.50;;;;;;;;;;5036386;28;20164;-65
2022/08/23 12:48:09;;;;;;;6.32;2.60;;;;;;;;;;5035200;28;20544;-67
2022/08/23 12:50:36;;;;;;;8.98;2.78;;;;;;;;;;5036159;28;20220;-65
2022/08/23 12:53:08;;;;;;;8.77;2.80;;;;;;;;;;5033642;28;20653;-66
2022/08/23 12:55:35;;;;;;;11.07;2.60;;;;;;;;;;5034270;28;20160;-66
2022/08/23 12:58:03;;;;;;;5.50;2.25;;;;;;;;;;5035705;28;20172;-66
2022/08/23 13:00:33;;;;;;;7.78;2.63;;;;;;;;;;5036006;28;20569;-66
2022/08/23 13:03:00;;;;;;;6.45;2.35;;;;;;;;;;5033365;28;20176;-66
2022/08/23 13:05:35;;;;;;;6.55;2.25;;;;;;;;;;5035809;28;20251;-66
2022/08/23 13:08:01;;;;;;;6.65;2.28;;;;;;;;;;5034081;28;20274;-66
2022/08/23 13:10:26;;;;;;;8.68;3.05;;;;;;;;;;5034651;28;20299;-66
2022/08/23 13:12:52;;;;;;;10.45;2.40;;;;;;;;;;5035123;28;20167;-66
2022/08/23 13:15:36;;;;;;;6.85;2.20;;;;;;;;;;5035057;28;20172;-65
2022/08/23 13:18:01;;;;;;;7.70;2.38;;;;;;;;;;5034953;28;20172;-66
2022/08/23 13:20:27;;;;;;;4.53;2.00;;;;;;;;;;5035770;28;20519;-65
2022/08/23 13:22:54;;;;;;;6.00;2.25;;;;;;;;;;5034880;28;20176;-66
2022/08/23 13:25:24;;;;;;;7.30;2.10;;;;;;;;;;5035675;28;20646;-66
2022/08/23 13:27:51;;;;;;;6.38;2.00;;;;;;;;;;5034464;28;20183;-66
2022/08/23 13:30:18;;;;;;;6.80;2.50;;;;;;;;;;5034669;28;20199;-65
2022/08/23 13:32:44;;;;;;;4.90;2.08;;;;;;;;;;5035014;28;20168;-65
2022/08/23 13:35:24;;;;;;;8.77;2.60;;;;;;;;;;5035603;28;20681;-66
2022/08/23 13:37:49;;;;;;;8.73;2.40;;;;;;;;;;5033514;28;20168;-66
2022/08/23 13:40:17;;;;;;;8.15;2.53;;;;;;;;;;5034335;28;20294;-65
2022/08/23 13:42:48;;;;;;;6.30;2.08;;;;;;;;;;5034170;28;20168;-67
2022/08/23 13:45:13;;;;;;;6.82;2.20;;;;;;;;;;5034253;28;20639;-68
2022/08/23 13:47:42;;;;;;;6.53;2.13;;;;;;;;;;5034693;28;20216;-68
2022/08/23 13:50:23;;;;;;;5.18;1.83;;;;;;;;;;5034440;28;20204;-69
2022/08/23 13:52:48;;;;;;;4.57;2.03;;;;;;;;;;5035119;28;20199;-68
2022/08/23 13:55:14;;;;;;;6.88;2.13;;;;;;;;;;5035084;28;20164;-68
2022/08/23 13:57:39;;;;;;;6.05;2.03;;;;;;;;;;5034125;28;20516;-67
2022/08/23 14:00:08;;;;;;;8.27;2.28;;;;;;;;;;5033939;28;20528;-67
2022/08/23 14:02:33;;;;;;;8.38;2.30;;;;;;;;;;5033175;28;20198;-68
2022/08/23 14:04:59;;;;;;;7.30;2.30;;;;;;;;;;5034040;28;20187;-68
2022/08/23 14:07:24;;;;;;;8.45;2.28;;;;;;;;;;5034542;28;20220;-68
2022/08/23 14:09:49;;;;;;;5.35;2.03;;;;;;;;;;5034640;28;20227;-68
2022/08/23 14:12:16;;;;;;;5.80;2.35;;;;;;;;;;5033713;28;20160;-68
2022/08/23 14:14:42;;;;;;;9.57;2.20;;;;;;;;;;5033258;28;20528;-67
2022/08/23 14:17:08;;;;;;;8.57;2.10;;;;;;;;;;5034359;28;20164;-68
2022/08/23 14:19:33;;;;;;;9.02;2.60;;;;;;;;;;5033554;28;20230;-68
2022/08/23 14:21:58;;;;;;;6.88;2.40;;;;;;;;;;5034266;28;20176;-67
2022/08/23 14:24:24;;;;;;;8.57;2.40;;;;;;;;;;5033645;28;20175;-68
2022/08/23 14:26:50;;;;;;;6.30;2.33;;;;;;;;;;5033403;28;20168;-70
2022/08/23 14:29:15;;;;;;;6.93;2.50;;;;;;;;;;5034472;28;20171;-68
2022/08/23 14:31:40;;;;;;;5.70;2.25;;;;;;;;;;5033777;28;20532;-69
2022/08/23 14:34:05;;;;;;;5.13;2.10;;;;;;;;;;5031997;28;20206;-67
2022/08/23 14:36:31;;;;;;;5.90;2.20;;;;;;;;;;5034098;28;20619;-67
2022/08/23 14:38:56;;;;;;;6.28;2.08;;;;;;;;;;5034114;28;20172;-68
2022/08/23 14:41:22;;;;;;;8.63;2.63;;;;;;;;;;5033213;28;20176;-67
2022/08/23 14:43:48;;;;;;;7.80;1.92;;;;;;;;;;5034142;28;20172;-67
2022/08/23 14:46:13;;;;;;;6.43;1.90;;;;;;;;;;5031578;28;20227;-66
2022/08/23 14:48:38;;;;;;;5.10;2.00;;;;;;;;;;5031408;28;20183;-68